createdAt,value
2023-05-08T00:04:52.363Z,5.04
2023-05-08T00:09:56.304Z,4.99
2023-05-08T00:15:00.563Z,4.83
2023-05-08T00:20:04.973Z,4.59
2023-05-08T00:31:59.286Z,4.28
2023-05-08T00:37:04.016Z,4.12
2023-05-08T00:42:07.942Z,4.06
2023-05-08T00:47:11.971Z,4.00
2023-05-08T00:52:16.854Z,4.01
2023-05-08T00:57:22.838Z,4.01
2023-05-08T01:02:26.555Z,4.04
2023-05-08T01:07:30.421Z,4.10
2023-05-08T01:13:37.680Z,4.05
2023-05-08T01:19:12.669Z,4.15
2023-05-08T01:25:04.511Z,3.99
2023-05-08T01:31:05.582Z,3.84
2023-05-08T01:36:21.036Z,3.70
2023-05-08T01:42:39.556Z,3.61
2023-05-08T01:47:52.231Z,3.49
2023-05-08T01:53:09.522Z,3.46
2023-05-08T01:58:20.932Z,3.34
2023-05-08T02:03:26.602Z,3.22
2023-05-08T02:08:32.817Z,3.16
2023-05-08T02:13:40.389Z,3.12
2023-05-08T02:18:54.380Z,3.14
2023-05-08T02:24:01.100Z,3.16
2023-05-08T02:29:05.294Z,3.22
2023-05-08T02:34:10.958Z,3.16
2023-05-08T02:39:18.176Z,3.01
2023-05-08T02:44:22.092Z,2.94
2023-05-08T02:50:06.925Z,2.83
2023-05-08T02:55:58.478Z,2.79
2023-05-08T03:01:20.647Z,2.74
2023-05-08T03:06:27.605Z,2.69
2023-05-08T03:11:43.609Z,2.71
2023-05-08T03:16:52.771Z,2.73
2023-05-08T03:21:58.533Z,2.78
2023-05-08T03:27:05.166Z,2.86
2023-05-08T03:32:34.412Z,2.92
2023-05-08T03:46:16.021Z,2.92
2023-05-08T03:51:21.552Z,3.02
2023-05-08T03:57:09.834Z,3.06
2023-05-08T04:02:34.067Z,3.12
2023-05-08T04:07:54.072Z,3.27
2023-05-08T04:13:20.115Z,3.48
2023-05-08T04:19:14.388Z,3.74
2023-05-08T04:39:29.342Z,4.58
2023-05-08T04:44:33.670Z,4.86
2023-05-08T04:49:37.418Z,5.17
2023-05-08T05:06:07.587Z,6.15
2023-05-08T05:11:12.840Z,6.47
2023-05-08T05:17:08.597Z,6.77
2023-05-08T05:29:02.224Z,7.61
2023-05-08T06:18:29.554Z,10.89
2023-05-08T06:23:43.790Z,11.35
2023-05-08T06:28:50.634Z,11.83
2023-05-08T06:34:11.015Z,12.21
2023-05-08T06:39:44.040Z,12.58
2023-05-08T06:45:05.066Z,12.93
2023-05-08T06:57:37.443Z,13.75
2023-05-08T07:02:41.267Z,14.18
2023-05-08T07:08:05.786Z,14.50
2023-05-08T07:13:09.409Z,14.72
2023-05-08T07:18:25.782Z,14.96
2023-05-08T07:30:38.779Z,15.22
2023-05-08T07:35:54.687Z,15.77
2023-05-08T07:41:27.854Z,15.95
2023-05-08T07:47:23.988Z,16.43
2023-05-08T07:53:18.568Z,16.81
2023-05-08T08:06:00.006Z,16.67
2023-05-08T08:11:07.846Z,16.87
2023-05-08T08:17:13.538Z,16.88
2023-05-08T08:22:17.135Z,16.69
2023-05-08T08:28:09.710Z,16.79
2023-05-08T08:33:13.235Z,17.05
2023-05-08T08:38:21.046Z,17.39
2023-05-08T08:44:16.490Z,17.67
2023-05-08T08:49:34.837Z,17.82
2023-05-08T08:54:42.273Z,18.27
2023-05-08T09:00:15.884Z,18.08
2023-05-08T09:05:22.572Z,17.88
2023-05-08T09:10:36.434Z,18.03
2023-05-08T09:15:40.228Z,18.57
2023-05-08T09:21:02.133Z,18.16
2023-05-08T09:26:57.753Z,18.07
2023-05-08T09:33:02.032Z,18.42
2023-05-08T09:39:22.521Z,18.27
2023-05-08T09:44:53.706Z,19.06
2023-05-08T09:50:28.182Z,20.11
2023-05-08T09:55:48.299Z,20.27
2023-05-08T10:00:51.880Z,19.70
2023-05-08T10:05:55.891Z,19.45
2023-05-08T10:11:20.334Z,18.98
2023-05-08T10:17:45.699Z,19.09
2023-05-08T10:22:50.226Z,20.02
2023-05-08T10:29:20.438Z,20.29
2023-05-08T10:34:27.132Z,20.78
2023-05-08T10:41:08.412Z,20.71
2023-05-08T10:46:31.844Z,20.40
2023-05-08T10:52:14.892Z,20.52
2023-05-08T10:57:18.664Z,21.14
2023-05-08T11:03:23.534Z,21.82
2023-05-08T11:09:24.954Z,21.96
2023-05-08T11:14:33.806Z,21.25
2023-05-08T11:20:38.537Z,20.86
2023-05-08T11:25:44.181Z,20.44
2023-05-08T11:31:16.839Z,21.01
2023-05-08T11:36:22.998Z,20.47
2023-05-08T11:42:25.902Z,20.23
2023-05-08T11:54:22.086Z,21.77
2023-05-08T11:59:26.034Z,21.18
2023-05-08T12:04:32.084Z,20.50
2023-05-08T12:16:58.666Z,20.56
2023-05-08T12:22:41.864Z,20.57
2023-05-08T12:29:01.776Z,20.83
2023-05-08T12:34:41.037Z,21.25
2023-05-08T12:39:45.251Z,21.34
2023-05-08T12:44:53.597Z,21.57
2023-05-08T12:49:58.674Z,21.86
2023-05-08T13:02:39.299Z,21.50
2023-05-08T13:14:51.900Z,22.70
2023-05-08T13:49:52.855Z,23.25
2023-05-08T13:55:32.662Z,23.07
2023-05-08T14:01:13.789Z,22.75
2023-05-08T14:06:27.121Z,23.27
2023-05-08T14:11:32.735Z,23.14
2023-05-08T14:16:37.689Z,22.85
2023-05-08T14:21:48.443Z,22.88
2023-05-08T14:26:56.553Z,22.74
2023-05-08T14:32:26.924Z,23.03
2023-05-08T14:38:12.336Z,22.85
2023-05-08T14:43:53.948Z,22.38
2023-05-08T14:49:03.147Z,22.62
2023-05-08T14:54:32.572Z,23.09
2023-05-08T15:00:58.859Z,23.35
2023-05-08T15:06:02.696Z,24.11
2023-05-08T15:11:06.388Z,25.03
2023-05-08T15:16:10.363Z,25.42
2023-05-08T15:22:52.746Z,25.70
2023-05-08T15:27:58.215Z,26.44
2023-05-08T15:33:02.175Z,26.79
2023-05-08T15:38:07.633Z,27.01
2023-05-08T15:51:40.961Z,27.28
2023-05-08T15:56:47.090Z,27.42
2023-05-08T16:16:34.810Z,26.13
2023-05-08T16:36:07.949Z,23.82
2023-05-08T16:42:02.290Z,23.18
2023-05-08T16:47:06.216Z,22.60
2023-05-08T16:52:10.040Z,22.21
2023-05-08T16:57:13.861Z,21.84
2023-05-08T17:02:19.468Z,21.48
2023-05-08T17:16:02.967Z,21.09
2023-05-08T17:35:59.331Z,19.08
2023-05-08T17:41:13.655Z,18.66
2023-05-08T17:46:19.313Z,18.28
2023-05-08T17:51:24.109Z,17.92
2023-05-08T17:56:57.093Z,17.60
2023-05-08T18:02:03.104Z,17.35
2023-05-08T18:14:13.834Z,16.70
2023-05-08T18:27:48.109Z,16.24
2023-05-08T18:32:53.634Z,15.87
2023-05-08T18:42:13.820Z,15.32
2023-05-08T18:47:18.147Z,15.09
2023-05-08T18:52:22.168Z,14.90
2023-05-08T18:57:25.989Z,14.63
2023-05-08T19:03:30.276Z,14.42
2023-05-08T19:08:33.956Z,14.15
2023-05-08T19:13:39.737Z,13.86
2023-05-08T19:18:43.566Z,13.64
2023-05-08T19:23:47.274Z,13.42
2023-05-08T19:39:11.769Z,12.99
2023-05-08T19:53:18.307Z,12.63
2023-05-08T20:06:40.948Z,11.98
2023-05-08T20:11:45.455Z,11.81
2023-05-08T20:21:36.769Z,11.56
2023-05-08T20:26:41.585Z,11.46
2023-05-08T20:32:15.075Z,11.38
2023-05-08T20:37:46.861Z,11.31
2023-05-08T20:44:13.315Z,11.18
2023-05-08T20:56:23.891Z,10.94
2023-05-08T21:01:27.837Z,10.93
2023-05-08T21:07:24.244Z,10.85
2023-05-08T21:12:28.181Z,10.74
2023-05-08T21:17:32.002Z,10.68
2023-05-08T21:22:36.066Z,10.54
2023-05-08T21:27:44.260Z,10.32
2023-05-08T21:32:48.429Z,10.17
2023-05-08T21:37:54.496Z,10.02
2023-05-08T21:42:58.597Z,9.93
2023-05-08T21:55:10.385Z,9.79
2023-05-08T22:00:40.189Z,9.68
2023-05-08T22:05:44.214Z,9.43
2023-05-08T22:12:29.012Z,9.18
2023-05-08T22:17:36.649Z,8.97
2023-05-08T22:22:52.429Z,8.87
2023-05-08T22:28:24.166Z,8.75
2023-05-08T22:33:32.672Z,8.67
2023-05-08T22:46:35.206Z,8.40
2023-05-08T22:51:39.323Z,8.30
2023-05-08T22:57:09.085Z,8.19
2023-05-08T23:02:57.557Z,8.10
2023-05-08T23:08:02.178Z,7.93
2023-05-08T23:13:05.896Z,7.75
2023-05-08T23:25:37.136Z,7.23
2023-05-08T23:30:40.948Z,7.10
2023-05-08T23:44:14.640Z,6.96
2023-05-08T23:49:59.033Z,6.99
2023-05-08T23:55:03.056Z,6.98
